createdAt,value
2022-10-04T00:03:51.823Z,75.70
2022-10-04T00:07:55.175Z,75.95
2022-10-04T00:11:58.927Z,76.23
2022-10-04T00:15:59.000Z,76.26
2022-10-04T00:19:58.078Z,76.80
2022-10-04T00:24:13.267Z,76.69
2022-10-04T00:28:46.001Z,76.93
2022-10-04T00:33:02.924Z,77.01
2022-10-04T00:37:02.774Z,76.97
2022-10-04T00:41:08.507Z,77.05
2022-10-04T00:45:25.584Z,77.15
2022-10-04T00:49:33.783Z,77.72
2022-10-04T00:53:44.415Z,77.98
2022-10-04T00:57:47.976Z,77.72
2022-10-04T01:01:56.352Z,77.79
2022-10-04T01:06:01.814Z,78.43
2022-10-04T01:10:05.263Z,78.38
2022-10-04T01:14:10.913Z,77.98
2022-10-04T01:18:31.345Z,77.83
2022-10-04T01:22:44.863Z,78.30
2022-10-04T01:26:47.058Z,78.36
2022-10-04T01:30:47.299Z,79.08
2022-10-04T01:34:47.056Z,79.07
2022-10-04T01:38:48.718Z,79.42
2022-10-04T01:42:59.681Z,80.13
2022-10-04T01:47:03.730Z,80.13
2022-10-04T01:51:07.889Z,80.36
2022-10-04T01:55:15.817Z,80.53
2022-10-04T01:59:22.051Z,80.86
2022-10-04T02:03:25.999Z,82.09
2022-10-04T02:07:30.383Z,82.35
2022-10-04T02:11:32.882Z,82.58
2022-10-04T02:15:34.798Z,82.88
2022-10-04T02:19:38.345Z,82.99
2022-10-04T02:23:39.495Z,82.73
2022-10-04T02:27:41.469Z,82.69
2022-10-04T02:31:58.097Z,83.09
2022-10-04T02:35:58.170Z,83.78
2022-10-04T02:40:06.041Z,83.74
2022-10-04T02:44:16.558Z,83.61
2022-10-04T02:48:30.728Z,83.27
2022-10-04T02:52:36.259Z,83.03
2022-10-04T02:56:37.654Z,83.08
2022-10-04T03:00:49.457Z,82.76
2022-10-04T03:04:52.192Z,82.08
2022-10-04T03:08:54.948Z,82.34
2022-10-04T03:12:55.238Z,82.48
2022-10-04T03:17:00.400Z,83.02
2022-10-04T03:21:03.119Z,83.04
2022-10-04T03:25:03.027Z,82.93
2022-10-04T03:29:03.614Z,82.87
2022-10-04T03:33:07.167Z,82.72
2022-10-04T03:37:10.370Z,82.53
2022-10-04T03:41:13.802Z,82.88
2022-10-04T03:45:17.676Z,82.81
2022-10-04T03:49:25.960Z,82.94
2022-10-04T03:53:42.755Z,83.53
2022-10-04T03:57:42.607Z,83.66
2022-10-04T04:01:46.329Z,84.18
2022-10-04T04:05:53.462Z,84.19
2022-10-04T04:09:59.080Z,84.51
2022-10-04T04:14:06.180Z,84.79
2022-10-04T04:18:08.120Z,85.25
2022-10-04T04:22:17.567Z,85.46
2022-10-04T04:26:25.547Z,86.08
2022-10-04T04:30:25.369Z,86.56
2022-10-04T04:34:28.217Z,86.63
2022-10-04T04:38:30.229Z,86.86
2022-10-04T04:42:33.841Z,86.55
2022-10-04T04:46:34.171Z,87.08
2022-10-04T04:50:37.523Z,87.41
2022-10-04T04:54:40.685Z,87.09
2022-10-04T04:58:46.369Z,86.69
2022-10-04T05:02:58.329Z,86.50
2022-10-04T05:07:04.898Z,86.76
2022-10-04T05:11:15.753Z,86.53
2022-10-04T05:15:15.668Z,85.91
2022-10-04T05:19:20.204Z,86.42
2022-10-04T05:23:19.995Z,86.27
2022-10-04T05:27:32.736Z,85.65
2022-10-04T05:31:44.348Z,85.46
2022-10-04T05:35:57.893Z,85.05
2022-10-04T05:40:08.745Z,84.98
2022-10-04T05:44:27.883Z,83.69
2022-10-04T05:48:28.312Z,82.90
2022-10-04T05:52:30.780Z,81.92
2022-10-04T05:56:56.063Z,81.54
2022-10-04T06:01:21.666Z,80.91
2022-10-04T06:05:29.219Z,80.64
2022-10-04T06:09:44.899Z,81.29
2022-10-04T06:14:14.496Z,80.17
2022-10-04T06:18:32.764Z,80.52
2022-10-04T06:22:32.992Z,80.49
2022-10-04T06:26:40.153Z,80.01
2022-10-04T06:30:53.720Z,79.62
2022-10-04T06:35:27.671Z,79.54
2022-10-04T06:39:52.466Z,79.12
2022-10-04T06:44:24.480Z,79.37
2022-10-04T06:48:48.653Z,79.27
2022-10-04T06:53:11.602Z,77.07
2022-10-04T06:57:37.851Z,76.20
2022-10-04T07:01:40.529Z,76.66
2022-10-04T07:05:47.993Z,75.85
2022-10-04T07:09:51.292Z,75.80
2022-10-04T07:13:57.370Z,74.54
2022-10-04T07:18:01.061Z,75.97
2022-10-04T07:22:12.081Z,74.51
2022-10-04T07:26:25.967Z,72.98
2022-10-04T07:30:25.797Z,71.98
2022-10-04T07:34:32.475Z,72.16
2022-10-04T07:38:35.647Z,71.13
2022-10-04T07:42:48.053Z,71.49
2022-10-04T07:46:54.719Z,70.00
2022-10-04T07:51:09.048Z,69.09
2022-10-04T07:55:19.298Z,66.61
2022-10-04T07:59:37.667Z,66.90
2022-10-04T08:04:01.742Z,67.62
2022-10-04T08:08:22.420Z,67.36
2022-10-04T08:12:27.346Z,65.59
2022-10-04T08:16:37.572Z,64.26
2022-10-04T08:20:46.536Z,62.43
2022-10-04T08:24:57.932Z,61.49
2022-10-04T08:29:34.075Z,59.29
2022-10-04T08:33:54.865Z,59.42
2022-10-04T08:38:09.259Z,58.25
2022-10-04T08:42:44.202Z,57.67
2022-10-04T08:47:19.896Z,57.51
2022-10-04T08:51:53.186Z,56.41
2022-10-04T08:56:07.953Z,54.57
2022-10-04T09:00:22.810Z,52.54
2022-10-04T09:05:00.536Z,53.21
2022-10-04T09:09:40.358Z,51.36
2022-10-04T09:13:57.644Z,51.15
2022-10-04T09:18:05.459Z,50.43
2022-10-04T09:22:21.083Z,50.83
2022-10-04T09:26:25.231Z,45.77
2022-10-04T09:30:43.352Z,48.51
2022-10-04T09:35:06.156Z,48.14
2022-10-04T09:39:46.806Z,48.71
2022-10-04T09:43:58.754Z,48.18
2022-10-04T09:48:24.818Z,47.50
2022-10-04T09:52:39.874Z,46.48
2022-10-04T09:57:21.293Z,45.21
2022-10-04T10:01:31.442Z,44.25
2022-10-04T10:05:54.374Z,44.43
2022-10-04T10:10:17.897Z,43.51
2022-10-04T10:14:40.210Z,41.84
2022-10-04T10:18:55.746Z,41.61
2022-10-04T10:23:10.278Z,40.14
2022-10-04T10:27:33.337Z,39.85
2022-10-04T10:31:55.010Z,39.58
2022-10-04T10:36:30.342Z,39.63
2022-10-04T10:40:43.261Z,38.97
2022-10-04T10:45:06.463Z,39.52
2022-10-04T10:49:28.515Z,38.10
2022-10-04T10:53:49.231Z,38.76
2022-10-04T10:58:26.215Z,37.33
2022-10-04T11:02:52.651Z,36.15
2022-10-04T11:07:22.669Z,36.23
2022-10-04T11:11:42.727Z,37.06
2022-10-04T11:16:05.110Z,37.27
2022-10-04T11:20:44.368Z,36.38
2022-10-04T11:25:19.806Z,36.96
2022-10-04T11:29:41.776Z,36.75
2022-10-04T11:34:17.322Z,36.98
2022-10-04T11:38:31.289Z,37.08
2022-10-04T11:42:49.024Z,37.41
2022-10-04T11:47:00.709Z,39.19
2022-10-04T11:51:40.323Z,38.65
2022-10-04T11:56:05.531Z,37.77
2022-10-04T12:00:16.289Z,37.43
2022-10-04T12:05:05.873Z,36.44
2022-10-04T12:09:20.093Z,36.22
2022-10-04T12:13:37.665Z,36.61
2022-10-04T12:18:26.304Z,37.27
2022-10-04T12:22:41.723Z,39.53
2022-10-04T12:27:25.692Z,38.75
2022-10-04T12:31:30.832Z,39.12
2022-10-04T12:35:47.643Z,38.22
2022-10-04T12:40:26.594Z,37.70
2022-10-04T12:44:38.461Z,37.11
2022-10-04T12:48:59.329Z,36.43
2022-10-04T12:53:16.175Z,36.13
2022-10-04T12:57:40.528Z,36.25
2022-10-04T13:01:55.452Z,36.80
2022-10-04T13:06:08.499Z,38.28
2022-10-04T13:10:32.762Z,37.10
2022-10-04T13:15:05.939Z,36.37
2022-10-04T13:19:18.693Z,36.95
2022-10-04T13:23:36.729Z,36.99
2022-10-04T13:27:48.302Z,35.58
2022-10-04T13:31:53.965Z,35.57
2022-10-04T13:36:00.269Z,36.03
2022-10-04T13:40:24.563Z,36.61
2022-10-04T13:44:38.604Z,36.97
2022-10-04T13:48:56.185Z,37.37
2022-10-04T13:53:23.088Z,36.86
2022-10-04T13:57:32.752Z,37.15
2022-10-04T14:02:25.921Z,38.58
2022-10-04T14:06:58.853Z,38.41
2022-10-04T14:11:21.059Z,39.27
2022-10-04T14:15:45.818Z,39.39
2022-10-04T14:20:06.611Z,40.06
2022-10-04T14:24:46.350Z,38.73
2022-10-04T14:29:16.402Z,39.18
2022-10-04T14:33:41.404Z,39.29
2022-10-04T14:38:11.132Z,39.59
2022-10-04T14:42:54.195Z,39.56
2022-10-04T14:47:07.588Z,39.07
2022-10-04T14:51:36.514Z,38.80
2022-10-04T14:55:55.635Z,38.84
2022-10-04T15:00:14.017Z,38.75
2022-10-04T15:04:29.979Z,39.09
2022-10-04T15:09:10.478Z,38.89
2022-10-04T15:13:22.524Z,39.21
2022-10-04T15:17:28.917Z,40.00
2022-10-04T15:21:48.668Z,40.82
2022-10-04T15:25:55.878Z,41.21
2022-10-04T15:30:05.046Z,41.68
2022-10-04T15:34:14.791Z,42.29
2022-10-04T15:38:24.858Z,42.74
2022-10-04T15:42:29.865Z,43.14
2022-10-04T15:46:45.971Z,43.49
2022-10-04T15:51:01.066Z,44.12
2022-10-04T15:55:19.661Z,44.78
2022-10-04T15:59:36.214Z,45.81
2022-10-04T16:03:51.483Z,46.39
2022-10-04T16:08:31.363Z,46.61
2022-10-04T16:13:06.618Z,46.89
2022-10-04T16:17:26.782Z,47.44
2022-10-04T16:21:33.136Z,48.97
2022-10-04T16:25:42.246Z,49.56
2022-10-04T16:30:14.840Z,51.27
2022-10-04T16:34:41.932Z,52.84
2022-10-04T16:39:04.709Z,51.93
2022-10-04T16:43:08.481Z,52.13
2022-10-04T16:52:21.212Z,52.57
2022-10-04T16:56:23.222Z,52.94
2022-10-04T17:00:40.924Z,53.18
2022-10-04T17:05:09.627Z,53.95
2022-10-04T17:09:20.824Z,53.50
2022-10-04T17:13:26.713Z,51.05
2022-10-04T17:17:44.677Z,50.57
2022-10-04T17:21:48.823Z,50.88
2022-10-04T17:26:04.430Z,50.13
2022-10-04T17:30:23.339Z,47.22
2022-10-04T17:34:35.893Z,45.39
2022-10-04T17:38:45.415Z,44.75
2022-10-04T17:42:56.399Z,45.93
2022-10-04T17:47:03.838Z,46.26
2022-10-04T17:51:23.609Z,46.61
2022-10-04T17:55:29.988Z,46.35
2022-10-04T17:59:41.367Z,46.14
2022-10-04T18:03:44.523Z,46.81
2022-10-04T18:07:54.543Z,47.46
2022-10-04T18:11:57.335Z,47.76
2022-10-04T18:16:04.390Z,48.52
2022-10-04T18:20:27.735Z,49.26
2022-10-04T18:24:31.637Z,49.25
2022-10-04T18:28:34.369Z,49.32
2022-10-04T18:32:38.829Z,49.26
2022-10-04T18:36:53.621Z,49.53
2022-10-04T18:40:58.299Z,49.76
2022-10-04T18:45:01.220Z,49.83
2022-10-04T18:49:16.443Z,49.90
2022-10-04T18:53:48.414Z,49.92
2022-10-04T18:58:10.781Z,50.08
2022-10-04T19:02:20.161Z,49.83
2022-10-04T19:06:29.924Z,50.73
2022-10-04T19:10:34.422Z,52.26
2022-10-04T19:14:42.043Z,51.82
2022-10-04T19:19:12.068Z,52.59
2022-10-04T19:23:27.766Z,52.49
2022-10-04T19:27:36.062Z,52.69
2022-10-04T19:31:48.768Z,52.74
2022-10-04T19:36:14.244Z,52.64
2022-10-04T19:40:24.714Z,52.60
2022-10-04T19:44:39.627Z,51.96
2022-10-04T19:48:45.662Z,52.02
2022-10-04T19:52:53.002Z,52.35
2022-10-04T19:57:00.087Z,52.42
2022-10-04T20:00:59.901Z,52.50
2022-10-04T20:05:00.150Z,52.60
2022-10-04T20:09:19.931Z,53.10
2022-10-04T20:13:25.580Z,54.48
2022-10-04T20:17:35.877Z,54.03
2022-10-04T20:21:35.596Z,54.60
2022-10-04T20:26:05.877Z,55.71
2022-10-04T20:30:16.196Z,56.81
2022-10-04T20:34:36.291Z,57.23
2022-10-04T20:38:59.041Z,57.33
2022-10-04T20:43:29.333Z,57.42
2022-10-04T20:47:39.175Z,57.35
2022-10-04T20:51:38.560Z,58.29
2022-10-04T20:55:40.225Z,58.78
2022-10-04T20:59:39.905Z,58.70
2022-10-04T21:03:41.599Z,58.99
2022-10-04T21:07:41.328Z,59.51
2022-10-04T21:11:51.956Z,60.01
2022-10-04T21:15:58.135Z,60.60
2022-10-04T21:20:00.181Z,61.22
2022-10-04T21:23:59.890Z,61.63
2022-10-04T21:28:34.789Z,61.39
2022-10-04T21:32:37.588Z,61.81
2022-10-04T21:36:40.032Z,62.04
2022-10-04T21:40:39.671Z,61.83
2022-10-04T21:44:39.469Z,61.99
2022-10-04T21:48:39.219Z,62.43
2022-10-04T21:52:41.352Z,62.62
2022-10-04T21:56:40.834Z,62.88
2022-10-04T22:00:40.237Z,63.57
2022-10-04T22:04:41.288Z,63.88
2022-10-04T22:08:42.708Z,64.04
2022-10-04T22:12:42.578Z,64.05
2022-10-04T22:16:43.117Z,64.00
2022-10-04T22:20:43.312Z,64.40
2022-10-04T22:24:45.606Z,64.33
2022-10-04T22:28:48.646Z,64.98
2022-10-04T22:32:48.534Z,65.54
2022-10-04T22:36:48.699Z,65.92
2022-10-04T22:40:50.756Z,66.08
2022-10-04T22:44:49.861Z,66.20
2022-10-04T22:48:51.114Z,66.33
2022-10-04T22:52:50.843Z,66.47
2022-10-04T22:56:53.970Z,66.70
2022-10-04T23:00:53.718Z,67.93
2022-10-04T23:04:54.694Z,67.89
2022-10-04T23:08:54.815Z,67.78
2022-10-04T23:12:56.215Z,68.53
2022-10-04T23:16:55.939Z,68.98
2022-10-04T23:20:58.419Z,68.47
2022-10-04T23:24:59.353Z,68.80
2022-10-04T23:29:01.809Z,69.14
2022-10-04T23:33:03.127Z,69.19
2022-10-04T23:37:03.025Z,69.08
2022-10-04T23:41:03.005Z,68.83
2022-10-04T23:45:04.470Z,69.33
2022-10-04T23:49:04.257Z,69.46
2022-10-04T23:53:07.130Z,69.79
2022-10-04T23:57:07.922Z,70.54
